sensor_id;sensor_type;location;lat;lon;timestamp;P1;durP1;ratioP1;P2;durP2;ratioP2
73104;SDS011;61296;50.526;30.792;2022-11-15T00:02:44;24.10;;;10.35;;
73104;SDS011;61296;50.526;30.792;2022-11-15T00:18:23;17.73;;;9.27;;
73104;SDS011;61296;50.526;30.792;2022-11-15T00:34:01;20.13;;;9.38;;
73104;SDS011;61296;50.526;30.792;2022-11-15T00:49:40;18.58;;;9.18;;
73104;SDS011;61296;50.526;30.792;2022-11-15T01:05:19;17.00;;;9.30;;
73104;SDS011;61296;50.526;30.792;2022-11-15T01:20:57;19.17;;;10.10;;
73104;SDS011;61296;50.526;30.792;2022-11-15T01:36:35;14.45;;;8.60;;
73104;SDS011;61296;50.526;30.792;2022-11-15T01:52:14;17.00;;;9.00;;
73104;SDS011;61296;50.526;30.792;2022-11-15T02:07:56;16.05;;;9.27;;
73104;SDS011;61296;50.526;30.792;2022-11-15T02:39:40;16.20;;;8.77;;
73104;SDS011;61296;50.526;30.792;2022-11-15T02:55:31;15.63;;;8.32;;
73104;SDS011;61296;50.526;30.792;2022-11-15T03:11:14;17.00;;;8.43;;
73104;SDS011;61296;50.526;30.792;2022-11-15T03:26:55;16.15;;;9.25;;
73104;SDS011;61296;50.526;30.792;2022-11-15T03:42:39;14.43;;;8.60;;
73104;SDS011;61296;50.526;30.792;2022-11-15T03:58:26;18.55;;;8.60;;
73104;SDS011;61296;50.526;30.792;2022-11-15T04:14:04;13.57;;;7.65;;
73104;SDS011;61296;50.526;30.792;2022-11-15T04:29:42;16.38;;;7.75;;
73104;SDS011;61296;50.526;30.792;2022-11-15T04:45:20;15.50;;;8.60;;
73104;SDS011;61296;50.526;30.792;2022-11-15T05:00:58;17.95;;;8.55;;
73104;SDS011;61296;50.526;30.792;2022-11-15T05:16:44;20.58;;;9.77;;
73104;SDS011;61296;50.526;30.792;2022-11-15T05:32:23;20.50;;;9.85;;
73104;SDS011;61296;50.526;30.792;2022-11-15T05:48:03;25.30;;;12.43;;
73104;SDS011;61296;50.526;30.792;2022-11-15T06:03:46;27.77;;;11.82;;
73104;SDS011;61296;50.526;30.792;2022-11-15T06:19:24;29.40;;;12.30;;
73104;SDS011;61296;50.526;30.792;2022-11-15T06:35:03;32.55;;;12.35;;
73104;SDS011;61296;50.526;30.792;2022-11-15T06:50:41;34.88;;;15.68;;
73104;SDS011;61296;50.526;30.792;2022-11-15T07:06:19;29.77;;;12.00;;
73104;SDS011;61296;50.526;30.792;2022-11-15T07:21:57;28.65;;;10.70;;
73104;SDS011;61296;50.526;30.792;2022-11-15T07:53:12;28.00;;;10.40;;
73104;SDS011;61296;50.526;30.792;2022-11-15T08:08:50;20.05;;;9.05;;
73104;SDS011;61296;50.526;30.792;2022-11-15T08:24:29;22.75;;;9.93;;
73104;SDS011;61296;50.526;30.792;2022-11-15T08:40:09;21.70;;;9.48;;
73104;SDS011;61296;50.526;30.792;2022-11-15T08:55:47;20.63;;;8.98;;
73104;SDS011;61296;50.526;30.792;2022-11-15T09:11:27;25.65;;;11.23;;
73104;SDS011;61296;50.526;30.792;2022-11-15T09:27:06;27.25;;;13.07;;
73104;SDS011;61296;50.526;30.792;2022-11-15T10:14:19;30.20;;;13.05;;
73104;SDS011;61296;50.526;30.792;2022-11-15T10:29:44;32.25;;;13.77;;
73104;SDS011;61296;50.526;30.792;2022-11-15T10:45:28;28.63;;;11.30;;
73104;SDS011;61296;50.526;30.792;2022-11-15T11:00:49;27.52;;;11.85;;
73104;SDS011;61296;50.526;30.792;2022-11-15T11:31:40;31.52;;;14.38;;
73104;SDS011;61296;50.526;30.792;2022-11-15T12:18:43;32.85;;;13.57;;
73104;SDS011;61296;50.526;30.792;2022-11-15T12:34:15;35.85;;;14.60;;
73104;SDS011;61296;50.526;30.792;2022-11-15T12:49:47;33.28;;;14.98;;
73104;SDS011;61296;50.526;30.792;2022-11-15T13:20:38;33.35;;;16.05;;
73104;SDS011;61296;50.526;30.792;2022-11-15T13:35:59;34.38;;;16.25;;
73104;SDS011;61296;50.526;30.792;2022-11-15T14:06:49;36.63;;;17.57;;
73104;SDS011;61296;50.526;30.792;2022-11-15T14:22:25;38.35;;;17.30;;
73104;SDS011;61296;50.526;30.792;2022-11-15T15:04:50;40.92;;;19.60;;
73104;SDS011;61296;50.526;30.792;2022-11-15T15:20:10;45.42;;;20.80;;
73104;SDS011;61296;50.526;30.792;2022-11-15T20:56:42;37.80;;;17.98;;
73104;SDS011;61296;50.526;30.792;2022-11-15T21:12:02;37.45;;;18.80;;
73104;SDS011;61296;50.526;30.792;2022-11-15T21:27:32;32.47;;;17.85;;
73104;SDS011;61296;50.526;30.792;2022-11-15T21:42:51;33.63;;;16.40;;
73104;SDS011;61296;50.526;30.792;2022-11-15T21:58:11;33.67;;;17.05;;
73104;SDS011;61296;50.526;30.792;2022-11-15T22:13:30;30.92;;;15.60;;
